createdAt,value
2018-08-25T00:01:15.567Z,5.87
2018-08-25T00:03:43.666Z,5.33
2018-08-25T00:06:11.682Z,5.77
2018-08-25T00:08:39.713Z,7.20
2018-08-25T00:11:08.521Z,5.10
2018-08-25T00:13:36.649Z,5.97
2018-08-25T00:16:04.728Z,6.00
2018-08-25T00:18:32.818Z,6.80
2018-08-25T00:21:00.992Z,6.37
2018-08-25T00:23:29.094Z,5.37
2018-08-25T00:25:57.139Z,6.37
2018-08-25T00:28:25.160Z,7.20
2018-08-25T00:30:58.738Z,6.00
2018-08-25T00:33:26.966Z,5.33
2018-08-25T00:35:55.078Z,6.23
2018-08-25T00:38:23.190Z,7.03
2018-08-25T00:40:51.246Z,4.57
2018-08-25T00:43:19.341Z,6.13
2018-08-25T00:45:47.403Z,6.50
2018-08-25T00:48:15.508Z,4.87
2018-08-25T00:50:43.636Z,6.90
2018-08-25T00:53:11.776Z,5.10
2018-08-25T00:55:39.859Z,6.50
2018-08-25T00:58:08.247Z,4.97
2018-08-25T01:00:36.229Z,5.33
2018-08-25T01:03:04.402Z,5.70
2018-08-25T01:05:32.462Z,6.67
2018-08-25T01:08:00.643Z,7.07
2018-08-25T01:10:28.985Z,6.07
2018-08-25T01:12:57.146Z,8.33
2018-08-25T01:15:25.583Z,5.77
2018-08-25T01:17:53.618Z,5.97
2018-08-25T01:20:21.700Z,5.03
2018-08-25T01:22:49.912Z,7.67
2018-08-25T01:25:18.045Z,8.03
2018-08-25T01:27:46.102Z,7.20
2018-08-25T01:30:14.382Z,5.83
2018-08-25T01:32:42.567Z,5.17
2018-08-25T01:35:10.769Z,5.40
2018-08-25T01:37:38.840Z,5.03
2018-08-25T01:40:06.930Z,6.63
2018-08-25T01:42:34.984Z,5.27
2018-08-25T01:45:03.155Z,5.63
2018-08-25T01:47:31.180Z,6.13
2018-08-25T01:49:59.381Z,5.50
2018-08-25T01:52:27.510Z,6.73
2018-08-25T01:54:55.586Z,5.67
2018-08-25T01:57:23.585Z,4.70
2018-08-25T01:59:51.613Z,7.93
2018-08-25T02:02:19.765Z,6.40
2018-08-25T02:04:48.340Z,5.77
2018-08-25T02:07:16.539Z,8.03
2018-08-25T02:09:44.685Z,6.43
2018-08-25T02:12:12.762Z,7.37
2018-08-25T02:14:40.810Z,7.33
2018-08-25T02:17:08.820Z,7.60
2018-08-25T02:19:36.926Z,7.13
2018-08-25T02:22:04.981Z,5.87
2018-08-25T02:24:33.201Z,6.00
2018-08-25T02:27:01.342Z,5.47
2018-08-25T02:29:29.364Z,6.13
2018-08-25T02:31:57.447Z,5.37
2018-08-25T02:34:25.476Z,7.33
2018-08-25T02:36:53.643Z,6.20
2018-08-25T02:39:21.635Z,6.40
2018-08-25T02:41:49.804Z,5.47
2018-08-25T02:44:17.982Z,5.57
2018-08-25T02:46:46.162Z,8.83
2018-08-25T02:49:14.266Z,6.37
2018-08-25T02:51:42.284Z,8.37
2018-08-25T02:54:10.269Z,6.70
2018-08-25T02:56:38.376Z,5.97
2018-08-25T02:59:06.508Z,5.27
2018-08-25T03:01:34.758Z,5.90
2018-08-25T03:04:03.012Z,8.60
2018-08-25T03:06:31.036Z,6.23
2018-08-25T03:08:59.160Z,7.33
2018-08-25T03:11:27.408Z,7.17
2018-08-25T03:13:55.542Z,6.63
2018-08-25T03:16:23.679Z,8.40
2018-08-25T03:18:51.793Z,8.67
2018-08-25T03:21:20.040Z,7.47
2018-08-25T03:23:48.147Z,6.07
2018-08-25T03:26:16.177Z,6.00
2018-08-25T03:28:44.188Z,6.13
2018-08-25T03:31:12.396Z,8.27
2018-08-25T03:33:40.701Z,7.73
2018-08-25T03:36:08.790Z,5.73
2018-08-25T03:38:36.824Z,7.67
2018-08-25T03:41:05.326Z,7.40
2018-08-25T03:43:33.712Z,6.93
2018-08-25T03:46:01.734Z,7.83
2018-08-25T03:48:29.886Z,7.97
2018-08-25T03:50:58.003Z,5.83
2018-08-25T03:53:26.089Z,7.37
2018-08-25T03:55:54.278Z,7.57
2018-08-25T03:58:22.364Z,7.13
2018-08-25T04:00:50.496Z,6.40
2018-08-25T04:03:18.713Z,6.00
2018-08-25T04:05:46.779Z,7.47
2018-08-25T04:08:14.948Z,6.90
2018-08-25T04:10:43.234Z,7.17
2018-08-25T04:13:11.373Z,6.57
2018-08-25T04:15:39.410Z,6.17
2018-08-25T04:18:07.472Z,7.33
2018-08-25T04:20:35.530Z,6.33
2018-08-25T04:23:03.615Z,6.43
2018-08-25T04:25:31.788Z,8.00
2018-08-25T04:27:59.949Z,7.70
2018-08-25T04:30:28.081Z,11.13
2018-08-25T04:32:56.225Z,7.53
2018-08-25T04:35:24.288Z,7.27
2018-08-25T04:37:52.382Z,7.53
2018-08-25T04:40:20.546Z,6.43
2018-08-25T04:42:48.896Z,6.33
2018-08-25T04:45:16.992Z,7.13
2018-08-25T04:47:45.261Z,7.90
2018-08-25T04:50:13.298Z,7.43
2018-08-25T04:52:41.486Z,7.67
2018-08-25T04:55:09.558Z,7.77
2018-08-25T04:57:37.959Z,9.27
2018-08-25T05:00:06.670Z,10.20
2018-08-25T05:02:34.736Z,7.60
2018-08-25T05:05:02.904Z,8.47
2018-08-25T05:07:31.085Z,9.97
2018-08-25T05:09:59.416Z,8.03
2018-08-25T05:12:27.769Z,6.63
2018-08-25T05:14:56.108Z,8.10
2018-08-25T05:17:24.655Z,8.88
2018-08-25T05:19:53.102Z,8.67
2018-08-25T05:22:21.282Z,8.70
2018-08-25T05:24:49.518Z,9.33
2018-08-25T05:27:17.747Z,8.40
2018-08-25T05:29:46.077Z,12.90
2018-08-25T05:32:14.352Z,7.97
2018-08-25T05:34:42.437Z,8.77
2018-08-25T05:37:10.571Z,10.47
2018-08-25T05:39:38.868Z,8.87
2018-08-25T05:42:07.472Z,9.83
2018-08-25T05:44:42.217Z,7.03
2018-08-25T05:47:18.322Z,8.20
2018-08-25T05:49:51.018Z,7.83
2018-08-25T05:52:24.253Z,6.73
2018-08-25T05:54:55.518Z,8.20
2018-08-25T05:57:29.383Z,8.23
2018-08-25T06:00:02.348Z,8.03
2018-08-25T06:02:36.108Z,8.23
2018-08-25T06:05:09.238Z,9.73
2018-08-25T06:07:42.322Z,7.53
2018-08-25T06:10:13.870Z,7.20
2018-08-25T06:12:46.858Z,12.60
2018-08-25T06:15:18.390Z,7.47
2018-08-25T06:17:49.420Z,8.90
2018-08-25T06:20:21.827Z,7.60
2018-08-25T06:22:50.657Z,8.83
2018-08-25T06:25:18.745Z,9.33
2018-08-25T06:27:46.839Z,6.57
2018-08-25T06:30:15.058Z,9.13
2018-08-25T06:32:43.108Z,7.43
2018-08-25T06:35:11.193Z,14.00
2018-08-25T06:37:39.343Z,7.00
2018-08-25T06:40:07.644Z,9.17
2018-08-25T06:42:35.955Z,7.90
2018-08-25T06:45:04.312Z,7.00
2018-08-25T06:47:32.665Z,9.23
2018-08-25T06:50:00.906Z,8.43
2018-08-25T06:52:29.256Z,6.77
2018-08-25T06:54:57.605Z,10.30
2018-08-25T06:57:25.936Z,6.80
2018-08-25T06:59:54.212Z,7.83
2018-08-25T07:02:22.617Z,7.07
2018-08-25T07:04:50.979Z,7.50
2018-08-25T07:07:19.285Z,8.73
2018-08-25T07:09:47.573Z,6.87
2018-08-25T07:12:16.058Z,9.53
2018-08-25T07:14:44.579Z,8.47
2018-08-25T07:17:12.889Z,8.60
2018-08-25T07:19:41.208Z,7.20
2018-08-25T07:22:09.945Z,7.57
2018-08-25T07:24:38.363Z,6.77
2018-08-25T07:27:06.954Z,7.33
2018-08-25T07:29:38.646Z,8.47
2018-08-25T07:32:07.958Z,6.90
2018-08-25T07:34:36.808Z,6.73
2018-08-25T07:37:07.684Z,6.40
2018-08-25T07:39:36.267Z,7.60
2018-08-25T07:42:05.077Z,6.93
2018-08-25T07:44:33.928Z,6.20
2018-08-25T07:47:02.383Z,11.23
2018-08-25T07:49:30.989Z,8.17
2018-08-25T07:51:59.243Z,6.73
2018-08-25T07:54:27.768Z,7.27
2018-08-25T07:56:56.248Z,5.80
2018-08-25T07:59:24.928Z,6.17
2018-08-25T08:01:53.716Z,5.97
2018-08-25T08:04:23.046Z,5.65
2018-08-25T08:06:52.153Z,5.53
2018-08-25T08:09:23.020Z,5.53
2018-08-25T08:11:52.076Z,8.30
2018-08-25T08:14:20.551Z,5.70
2018-08-25T08:16:49.150Z,9.55
2018-08-25T08:19:17.836Z,5.60
2018-08-25T08:21:47.165Z,6.70
2018-08-25T08:24:16.869Z,5.08
2018-08-25T08:26:45.422Z,6.47
2018-08-25T08:29:13.997Z,8.63
2018-08-25T08:31:42.081Z,5.12
2018-08-25T08:34:10.239Z,11.05
2018-08-25T08:36:38.381Z,7.80
2018-08-25T08:39:08.827Z,6.87
2018-08-25T08:41:38.545Z,7.22
2018-08-25T08:44:06.895Z,5.12
2018-08-25T08:46:36.290Z,6.62
2018-08-25T08:49:06.026Z,8.23
2018-08-25T08:51:35.221Z,7.80
2018-08-25T08:54:03.356Z,7.45
2018-08-25T08:56:31.521Z,7.12
2018-08-25T08:59:00.120Z,6.55
2018-08-25T09:01:28.295Z,6.05
2018-08-25T09:03:56.743Z,7.20
2018-08-25T09:06:25.009Z,5.42
2018-08-25T09:08:53.217Z,8.18
2018-08-25T09:11:21.892Z,6.17
2018-08-25T09:13:50.384Z,6.08
2018-08-25T09:16:19.866Z,5.97
2018-08-25T09:18:48.307Z,6.37
2018-08-25T09:21:16.474Z,6.12
2018-08-25T09:23:45.095Z,7.58
2018-08-25T09:26:13.701Z,7.67
2018-08-25T09:28:42.101Z,5.85
2018-08-25T09:31:10.237Z,8.63
2018-08-25T09:33:38.564Z,6.45
2018-08-25T09:36:06.800Z,8.45
2018-08-25T09:38:35.154Z,5.78
2018-08-25T09:41:03.873Z,6.45
2018-08-25T09:43:32.143Z,6.45
2018-08-25T09:46:00.326Z,5.62
2018-08-25T09:48:28.566Z,6.75
2018-08-25T09:50:56.646Z,7.20
2018-08-25T09:53:24.891Z,6.35
2018-08-25T09:55:56.886Z,6.30
2018-08-25T09:58:25.209Z,5.17
2018-08-25T10:00:59.086Z,5.65
2018-08-25T10:03:27.391Z,5.70
2018-08-25T10:05:55.617Z,5.20
2018-08-25T10:08:23.776Z,7.03
2018-08-25T10:10:52.229Z,5.85
2018-08-25T10:13:20.496Z,6.28
2018-08-25T10:15:48.966Z,5.95
2018-08-25T10:18:17.503Z,5.53
2018-08-25T10:20:45.750Z,5.60
2018-08-25T10:23:14.392Z,6.45
2018-08-25T10:25:42.649Z,7.87
2018-08-25T10:28:11.268Z,6.03
2018-08-25T10:30:39.470Z,5.80
2018-08-25T10:33:08.128Z,7.42
2018-08-25T10:35:36.457Z,7.80
2018-08-25T10:38:04.993Z,5.67
2018-08-25T10:40:33.958Z,5.92
2018-08-25T10:43:02.202Z,5.12
2018-08-25T10:45:30.418Z,6.28
2018-08-25T10:47:58.625Z,5.65
2018-08-25T10:50:26.784Z,6.80
2018-08-25T10:52:55.060Z,5.53
2018-08-25T10:55:23.738Z,5.85
2018-08-25T10:57:52.562Z,6.15
2018-08-25T11:00:22.463Z,4.90
2018-08-25T11:02:50.959Z,5.50
2018-08-25T11:05:19.214Z,6.70
2018-08-25T11:07:47.406Z,5.55
2018-08-25T11:10:16.096Z,6.17
2018-08-25T11:12:44.713Z,7.50
2018-08-25T11:15:12.959Z,7.10
2018-08-25T11:17:41.282Z,6.60
2018-08-25T11:20:09.557Z,8.10
2018-08-25T11:22:37.752Z,7.30
2018-08-25T11:25:06.295Z,6.65
2018-08-25T11:27:34.675Z,6.45
2018-08-25T11:30:03.269Z,8.23
2018-08-25T11:32:32.106Z,6.97
2018-08-25T11:35:00.381Z,7.53
2018-08-25T11:37:29.043Z,6.40
2018-08-25T11:39:57.360Z,6.58
2018-08-25T11:42:26.430Z,6.42
2018-08-25T11:44:55.529Z,6.53
2018-08-25T11:47:24.140Z,9.20
2018-08-25T11:49:52.937Z,8.45
2018-08-25T11:52:21.869Z,6.22
2018-08-25T11:54:50.429Z,6.17
2018-08-25T11:57:19.270Z,7.42
2018-08-25T11:59:48.600Z,9.03
2018-08-25T12:02:17.497Z,6.17
2018-08-25T12:04:46.188Z,6.03
2018-08-25T12:07:14.693Z,6.75
2018-08-25T12:09:44.103Z,8.18
2018-08-25T12:12:13.189Z,6.72
2018-08-25T12:14:41.778Z,6.58
2018-08-25T12:17:10.284Z,6.97
2018-08-25T12:19:38.584Z,6.80
2018-08-25T12:22:07.075Z,7.08
2018-08-25T12:24:35.750Z,6.35
2018-08-25T12:27:04.973Z,5.50
2018-08-25T12:29:33.556Z,6.10
2018-08-25T12:32:02.086Z,7.05
2018-08-25T12:34:30.835Z,6.62
2018-08-25T12:36:59.348Z,6.83
2018-08-25T12:39:27.652Z,6.75
2018-08-25T12:41:55.951Z,10.30
2018-08-25T12:44:24.278Z,8.05
2018-08-25T12:46:52.899Z,6.67
2018-08-25T12:49:21.508Z,8.03
2018-08-25T12:51:50.308Z,6.15
2018-08-25T12:54:20.758Z,6.65
2018-08-25T12:56:49.615Z,6.00
2018-08-25T12:59:18.130Z,7.67
2018-08-25T13:01:46.545Z,6.80
2018-08-25T13:04:14.995Z,7.95
2018-08-25T13:06:43.666Z,6.03
2018-08-25T13:09:12.428Z,6.58
2018-08-25T13:11:40.737Z,5.87
2018-08-25T13:14:09.365Z,6.33
2018-08-25T13:16:37.856Z,6.75
2018-08-25T13:19:06.300Z,6.90
2018-08-25T13:21:34.631Z,5.95
2018-08-25T13:24:02.920Z,7.15
2018-08-25T13:26:31.319Z,7.28
2018-08-25T13:29:00.496Z,7.20
2018-08-25T13:31:29.020Z,7.10
2018-08-25T13:33:57.594Z,6.45
2018-08-25T13:36:25.960Z,7.62
2018-08-25T13:38:54.441Z,10.18
2018-08-25T13:41:22.868Z,7.95
2018-08-25T13:43:51.259Z,7.30
2018-08-25T13:46:19.573Z,7.53
2018-08-25T13:48:47.906Z,10.43
2018-08-25T13:51:16.308Z,13.25
2018-08-25T13:53:58.673Z,12.93
2018-08-25T13:56:28.682Z,14.95
2018-08-25T13:58:57.244Z,12.07
2018-08-25T14:01:25.414Z,8.90
2018-08-25T14:03:53.592Z,12.00
2018-08-25T14:06:21.895Z,8.98
2018-08-25T14:08:50.261Z,11.93
2018-08-25T14:11:18.794Z,9.03
2018-08-25T14:13:47.068Z,9.13
2018-08-25T14:16:15.947Z,10.72
2018-08-25T14:18:44.166Z,10.43
2018-08-25T14:21:12.563Z,11.20
2018-08-25T14:23:41.001Z,13.00
2018-08-25T14:26:09.580Z,12.67
2018-08-25T14:28:37.866Z,11.23
2018-08-25T14:31:06.348Z,12.13
2018-08-25T14:33:34.593Z,11.13
2018-08-25T14:36:02.691Z,13.23
2018-08-25T14:38:30.836Z,12.63
2018-08-25T14:40:58.951Z,13.13
2018-08-25T14:43:27.043Z,12.37
2018-08-25T14:45:55.107Z,15.20
2018-08-25T14:48:23.235Z,12.33
2018-08-25T14:50:51.600Z,12.33
2018-08-25T14:53:19.811Z,11.70
2018-08-25T14:55:48.038Z,12.87
2018-08-25T14:58:16.214Z,11.63
2018-08-25T15:00:44.543Z,14.77
2018-08-25T15:03:12.633Z,11.20
2018-08-25T15:05:41.375Z,12.50
2018-08-25T15:08:09.906Z,11.93
2018-08-25T15:10:37.948Z,10.30
2018-08-25T15:13:06.181Z,11.27
2018-08-25T15:15:34.512Z,9.80
2018-08-25T15:18:02.696Z,11.00
2018-08-25T15:20:30.895Z,10.17
2018-08-25T15:22:59.113Z,10.50
2018-08-25T15:25:27.255Z,10.13
2018-08-25T15:27:55.512Z,10.03
2018-08-25T15:30:23.812Z,10.77
2018-08-25T15:32:52.192Z,8.67
2018-08-25T15:35:20.487Z,8.37
2018-08-25T15:37:48.850Z,8.10
2018-08-25T15:40:17.030Z,8.97
2018-08-25T15:42:45.153Z,7.57
2018-08-25T15:45:13.397Z,7.47
2018-08-25T15:47:41.650Z,7.30
2018-08-25T15:50:09.838Z,7.23
2018-08-25T15:52:38.286Z,6.70
2018-08-25T15:55:06.993Z,6.80
2018-08-25T15:57:35.543Z,7.10
2018-08-25T16:00:03.797Z,6.47
2018-08-25T16:02:31.957Z,6.43
2018-08-25T16:05:00.115Z,6.23
2018-08-25T16:07:28.579Z,6.87
2018-08-25T16:09:56.906Z,5.80
2018-08-25T16:12:25.678Z,5.97
2018-08-25T16:14:54.141Z,7.23
2018-08-25T16:17:22.675Z,7.90
2018-08-25T16:19:51.228Z,6.50
2018-08-25T16:22:19.443Z,7.00
2018-08-25T16:24:47.795Z,7.13
2018-08-25T16:27:16.301Z,6.83
2018-08-25T16:29:44.620Z,6.30
2018-08-25T16:32:13.134Z,5.90
2018-08-25T16:34:42.870Z,5.97
2018-08-25T16:37:11.678Z,6.27
2018-08-25T16:39:40.193Z,6.40
2018-08-25T16:42:09.075Z,5.90
2018-08-25T16:44:37.213Z,7.10
2018-08-25T16:47:05.712Z,6.17
2018-08-25T16:49:34.510Z,6.23
2018-08-25T16:52:03.281Z,5.67
2018-08-25T16:54:31.849Z,5.40
2018-08-25T16:57:00.371Z,5.83
2018-08-25T16:59:29.011Z,6.87
2018-08-25T17:01:57.472Z,6.30
2018-08-25T17:04:26.483Z,7.13
2018-08-25T17:06:55.073Z,7.97
2018-08-25T17:09:23.712Z,6.73
2018-08-25T17:11:52.332Z,7.40
2018-08-25T17:14:21.005Z,8.50
2018-08-25T17:16:49.805Z,8.27
2018-08-25T17:19:18.693Z,7.83
2018-08-25T17:21:47.380Z,8.33
2018-08-25T17:24:16.011Z,8.57
2018-08-25T17:26:44.552Z,9.33
2018-08-25T17:29:13.418Z,9.70
2018-08-25T17:31:42.643Z,8.70
2018-08-25T17:34:11.199Z,8.87
2018-08-25T17:36:39.681Z,8.40
2018-08-25T17:39:10.264Z,8.57
2018-08-25T17:41:38.852Z,8.47
2018-08-25T17:44:07.335Z,8.73
2018-08-25T17:46:35.879Z,9.80
2018-08-25T17:49:04.367Z,9.37
2018-08-25T17:51:32.868Z,9.30
2018-08-25T17:54:01.501Z,8.93
2018-08-25T17:56:30.107Z,9.10
2018-08-25T17:58:58.795Z,8.57
2018-08-25T18:01:27.404Z,8.20
2018-08-25T18:03:56.000Z,9.40
2018-08-25T18:06:24.503Z,9.00
2018-08-25T18:08:52.947Z,8.37
2018-08-25T18:11:23.180Z,8.80
2018-08-25T18:13:51.929Z,8.60
2018-08-25T18:16:20.354Z,9.57
2018-08-25T18:18:49.291Z,8.57
2018-08-25T18:21:17.910Z,8.70
2018-08-25T18:23:46.420Z,9.90
2018-08-25T18:26:14.994Z,9.20
2018-08-25T18:28:43.675Z,9.23
2018-08-25T18:31:12.296Z,8.73
2018-08-25T18:33:40.657Z,8.67
2018-08-25T18:36:09.044Z,9.27
2018-08-25T18:38:37.539Z,10.43
2018-08-25T18:41:06.129Z,8.43
2018-08-25T18:43:34.704Z,7.27
2018-08-25T18:46:06.330Z,8.40
2018-08-25T18:48:34.890Z,8.13
2018-08-25T18:51:03.408Z,7.27
2018-08-25T18:53:31.943Z,8.60
2018-08-25T18:56:00.527Z,9.30
2018-08-25T18:58:29.053Z,8.77
2018-08-25T19:00:57.683Z,7.63
2018-08-25T19:03:26.678Z,9.27
2018-08-25T19:05:55.230Z,10.67
2018-08-25T19:08:23.893Z,9.83
2018-08-25T19:10:52.681Z,9.77
2018-08-25T19:13:21.107Z,10.33
2018-08-25T19:15:49.603Z,10.53
2018-08-25T19:18:18.515Z,10.47
2018-08-25T19:20:46.974Z,8.90
2018-08-25T19:23:15.915Z,11.77
2018-08-25T19:25:44.499Z,10.07
2018-08-25T19:28:13.147Z,9.00
2018-08-25T19:30:41.581Z,10.10
2018-08-25T19:33:10.031Z,10.77
2018-08-25T19:35:38.682Z,9.93
2018-08-25T19:38:07.467Z,9.40
2018-08-25T19:40:36.570Z,11.87
2018-08-25T19:43:05.936Z,9.13
2018-08-25T19:45:34.487Z,8.80
2018-08-25T19:48:03.153Z,10.40
2018-08-25T19:50:32.196Z,10.53
2018-08-25T19:53:01.044Z,10.60
2018-08-25T19:55:30.340Z,9.60
2018-08-25T19:57:58.886Z,9.90
2018-08-25T20:00:27.872Z,10.00
2018-08-25T20:02:56.440Z,10.27
2018-08-25T20:05:25.175Z,10.70
2018-08-25T20:07:53.812Z,10.50
2018-08-25T20:10:22.521Z,10.77
2018-08-25T20:12:51.077Z,10.37
2018-08-25T20:15:19.516Z,10.90
2018-08-25T20:17:48.296Z,10.00
2018-08-25T20:20:16.761Z,9.83
2018-08-25T20:22:45.635Z,9.50
2018-08-25T20:25:14.188Z,9.73
2018-08-25T20:27:42.835Z,10.90
2018-08-25T20:30:11.520Z,10.30
2018-08-25T20:32:40.108Z,9.93
2018-08-25T20:35:08.795Z,10.27
2018-08-25T20:37:37.237Z,10.27
2018-08-25T20:40:05.846Z,10.33
2018-08-25T20:42:34.557Z,11.60
2018-08-25T20:45:03.239Z,9.90
2018-08-25T20:47:31.698Z,10.33
2018-08-25T20:50:00.292Z,9.73
2018-08-25T20:52:29.090Z,10.50
2018-08-25T20:54:57.809Z,9.87
2018-08-25T20:57:26.451Z,10.30
2018-08-25T20:59:54.721Z,10.17
2018-08-25T21:02:23.304Z,10.87
2018-08-25T21:04:51.908Z,10.47
2018-08-25T21:07:20.424Z,11.43
2018-08-25T21:09:48.950Z,11.87
2018-08-25T21:12:17.281Z,11.53
2018-08-25T21:14:45.756Z,11.03
2018-08-25T21:17:14.206Z,11.37
2018-08-25T21:19:42.466Z,11.80
2018-08-25T21:22:11.024Z,12.30
2018-08-25T21:24:39.473Z,12.20
2018-08-25T21:27:07.815Z,10.23
2018-08-25T21:29:36.234Z,14.10
2018-08-25T21:32:04.602Z,12.57
2018-08-25T21:34:33.218Z,11.30
2018-08-25T21:37:01.631Z,12.97
2018-08-25T21:39:29.991Z,11.90
2018-08-25T21:41:58.391Z,11.13
2018-08-25T21:44:26.773Z,10.40
2018-08-25T21:46:55.412Z,11.50
2018-08-25T21:49:23.741Z,11.20
2018-08-25T21:51:52.088Z,10.90
2018-08-25T21:54:20.427Z,10.77
2018-08-25T21:56:48.658Z,11.10
2018-08-25T21:59:17.057Z,11.03
2018-08-25T22:08:37.927Z,11.30
2018-08-25T22:11:06.381Z,12.30
2018-08-25T22:13:34.554Z,10.90
2018-08-25T22:16:02.745Z,12.07
2018-08-25T22:18:30.803Z,12.73
2018-08-25T22:20:58.991Z,11.63
2018-08-25T22:23:27.045Z,12.97
2018-08-25T22:25:55.315Z,11.00
2018-08-25T22:28:23.426Z,11.67
2018-08-25T22:30:51.515Z,12.57
2018-08-25T22:33:19.557Z,11.50
2018-08-25T22:35:47.824Z,11.57
2018-08-25T22:38:15.883Z,12.43
2018-08-25T22:40:43.992Z,10.50
2018-08-25T22:43:12.215Z,11.20
2018-08-25T22:45:40.342Z,12.60
2018-08-25T22:48:08.344Z,14.30
2018-08-25T22:50:36.519Z,12.23
2018-08-25T22:53:04.639Z,13.77
2018-08-25T22:55:32.803Z,13.03
2018-08-25T22:58:00.851Z,10.87
2018-08-25T23:00:28.965Z,12.27
2018-08-25T23:02:57.143Z,12.10
2018-08-25T23:05:25.219Z,11.63
2018-08-25T23:07:53.243Z,12.83
2018-08-25T23:10:21.428Z,11.57
2018-08-25T23:12:49.618Z,12.37
2018-08-25T23:15:17.716Z,13.23
2018-08-25T23:17:45.710Z,12.93
2018-08-25T23:20:13.940Z,11.97
2018-08-25T23:22:42.127Z,12.10
2018-08-25T23:25:10.126Z,12.20
2018-08-25T23:27:38.211Z,12.37
2018-08-25T23:30:06.354Z,14.00
2018-08-25T23:32:34.421Z,12.30
2018-08-25T23:35:02.484Z,11.37
2018-08-25T23:37:30.569Z,13.80
2018-08-25T23:39:58.719Z,14.00
2018-08-25T23:42:26.930Z,11.23
2018-08-25T23:44:55.018Z,12.53
2018-08-25T23:47:23.096Z,14.57
2018-08-25T23:49:51.147Z,12.57
2018-08-25T23:52:19.131Z,12.70
2018-08-25T23:54:47.182Z,12.33
2018-08-25T23:57:15.206Z,16.50
2018-08-25T23:59:43.361Z,13.20
